sensor_id;sensor_type;location;lat;lon;timestamp;P1;durP1;ratioP1;P2;durP2;ratioP2
48809;SDS011;40070;47.322;18.784;2024-02-23T00:00:08;4.83;;;1.30;;
48809;SDS011;40070;47.322;18.784;2024-02-23T00:02:09;3.06;;;1.00;;
48809;SDS011;40070;47.322;18.784;2024-02-23T00:04:10;3.84;;;1.20;;
48809;SDS011;40070;47.322;18.784;2024-02-23T00:06:11;5.52;;;1.10;;
48809;SDS011;40070;47.322;18.784;2024-02-23T00:08:12;3.06;;;1.10;;
48809;SDS011;40070;47.322;18.784;2024-02-23T00:10:13;3.35;;;1.00;;
48809;SDS011;40070;47.322;18.784;2024-02-23T00:12:14;4.83;;;1.10;;
48809;SDS011;40070;47.322;18.784;2024-02-23T00:14:15;3.06;;;1.00;;
48809;SDS011;40070;47.322;18.784;2024-02-23T00:16:16;3.35;;;1.20;;
48809;SDS011;40070;47.322;18.784;2024-02-23T00:18:17;4.04;;;1.10;;
48809;SDS011;40070;47.322;18.784;2024-02-23T00:20:18;3.65;;;1.30;;
48809;SDS011;40070;47.322;18.784;2024-02-23T00:22:18;3.85;;;1.10;;
48809;SDS011;40070;47.322;18.784;2024-02-23T00:24:19;3.15;;;1.10;;
48809;SDS011;40070;47.322;18.784;2024-02-23T00:26:20;2.96;;;1.30;;
48809;SDS011;40070;47.322;18.784;2024-02-23T00:28:21;4.43;;;1.20;;
48809;SDS011;40070;47.322;18.784;2024-02-23T00:30:22;2.66;;;1.20;;
48809;SDS011;40070;47.322;18.784;2024-02-23T00:32:23;3.34;;;1.10;;
48809;SDS011;40070;47.322;18.784;2024-02-23T00:34:24;2.55;;;1.00;;
48809;SDS011;40070;47.322;18.784;2024-02-23T00:36:25;3.82;;;1.30;;
48809;SDS011;40070;47.322;18.784;2024-02-23T00:38:26;2.44;;;1.10;;
48809;SDS011;40070;47.322;18.784;2024-02-23T00:40:27;6.15;;;1.30;;
48809;SDS011;40070;47.322;18.784;2024-02-23T00:42:28;3.70;;;1.00;;
48809;SDS011;40070;47.322;18.784;2024-02-23T00:44:29;3.51;;;1.20;;
48809;SDS011;40070;47.322;18.784;2024-02-23T00:46:30;3.99;;;1.20;;
48809;SDS011;40070;47.322;18.784;2024-02-23T00:48:31;3.01;;;1.20;;
48809;SDS011;40070;47.322;18.784;2024-02-23T00:50:32;2.23;;;1.00;;
48809;SDS011;40070;47.322;18.784;2024-02-23T00:52:34;3.87;;;1.10;;
48809;SDS011;40070;47.322;18.784;2024-02-23T00:54:35;4.26;;;1.49;;
48809;SDS011;40070;47.322;18.784;2024-02-23T00:56:36;2.22;;;0.90;;
48809;SDS011;40070;47.322;18.784;2024-02-23T00:58:37;4.14;;;1.59;;
48809;SDS011;40070;47.322;18.784;2024-02-23T01:00:38;3.56;;;1.39;;
48809;SDS011;40070;47.322;18.784;2024-02-23T01:02:39;3.85;;;1.49;;
48809;SDS011;40070;47.322;18.784;2024-02-23T01:04:40;2.60;;;1.19;;
48809;SDS011;40070;47.322;18.784;2024-02-23T01:06:41;3.56;;;1.39;;
48809;SDS011;40070;47.322;18.784;2024-02-23T01:08:42;3.46;;;1.29;;
48809;SDS011;40070;47.322;18.784;2024-02-23T01:10:43;5.57;;;1.29;;
48809;SDS011;40070;47.322;18.784;2024-02-23T01:12:44;2.88;;;1.29;;
48809;SDS011;40070;47.322;18.784;2024-02-23T01:14:45;3.17;;;1.19;;
48809;SDS011;40070;47.322;18.784;2024-02-23T01:16:47;3.85;;;1.39;;
48809;SDS011;40070;47.322;18.784;2024-02-23T01:18:48;3.27;;;1.29;;
48809;SDS011;40070;47.322;18.784;2024-02-23T01:20:49;3.18;;;1.19;;
48809;SDS011;40070;47.322;18.784;2024-02-23T01:22:50;2.88;;;1.09;;
48809;SDS011;40070;47.322;18.784;2024-02-23T01:24:51;2.69;;;0.99;;
48809;SDS011;40070;47.322;18.784;2024-02-23T01:26:52;2.69;;;1.19;;
48809;SDS011;40070;47.322;18.784;2024-02-23T01:28:53;4.41;;;1.59;;
48809;SDS011;40070;47.322;18.784;2024-02-23T01:30:53;3.16;;;1.19;;
48809;SDS011;40070;47.322;18.784;2024-02-23T01:32:55;2.78;;;1.29;;
48809;SDS011;40070;47.322;18.784;2024-02-23T01:34:55;3.25;;;1.09;;
48809;SDS011;40070;47.322;18.784;2024-02-23T01:36:56;3.63;;;1.29;;
48809;SDS011;40070;47.322;18.784;2024-02-23T01:38:57;2.86;;;1.19;;
48809;SDS011;40070;47.322;18.784;2024-02-23T01:40:59;3.13;;;1.39;;
48809;SDS011;40070;47.322;18.784;2024-02-23T01:43:05;2.65;;;0.99;;
48809;SDS011;40070;47.322;18.784;2024-02-23T01:45:00;3.59;;;1.39;;
48809;SDS011;40070;47.322;18.784;2024-02-23T01:47:02;3.87;;;1.49;;
48809;SDS011;40070;47.322;18.784;2024-02-23T01:49:05;3.29;;;1.29;;
48809;SDS011;40070;47.322;18.784;2024-02-23T01:51:05;2.44;;;1.09;;
48809;SDS011;40070;47.322;18.784;2024-02-23T01:53:06;2.90;;;1.28;;
48809;SDS011;40070;47.322;18.784;2024-02-23T01:55:07;2.80;;;1.38;;
48809;SDS011;40070;47.322;18.784;2024-02-23T01:57:09;4.62;;;1.28;;
48809;SDS011;40070;47.322;18.784;2024-02-23T01:59:10;3.89;;;1.18;;
48809;SDS011;40070;47.322;18.784;2024-02-23T02:01:11;4.36;;;1.58;;
48809;SDS011;40070;47.322;18.784;2024-02-23T02:03:12;2.86;;;1.48;;
48809;SDS011;40070;47.322;18.784;2024-02-23T02:05:13;2.77;;;1.18;;
48809;SDS011;40070;47.322;18.784;2024-02-23T02:07:16;2.41;;;1.18;;
48809;SDS011;40070;47.322;18.784;2024-02-23T02:09:17;3.62;;;1.38;;
48809;SDS011;40070;47.322;18.784;2024-02-23T02:11:18;3.35;;;1.48;;
48809;SDS011;40070;47.322;18.784;2024-02-23T02:13:19;2.61;;;0.99;;
48809;SDS011;40070;47.322;18.784;2024-02-23T02:15:20;3.83;;;1.38;;
48809;SDS011;40070;47.322;18.784;2024-02-23T02:17:21;3.18;;;1.18;;
48809;SDS011;40070;47.322;18.784;2024-02-23T02:19:22;5.65;;;1.78;;
48809;SDS011;40070;47.322;18.784;2024-02-23T02:21:25;4.24;;;1.48;;
48809;SDS011;40070;47.322;18.784;2024-02-23T02:23:26;2.45;;;1.09;;
48809;SDS011;40070;47.322;18.784;2024-02-23T02:25:27;2.63;;;1.29;;
48809;SDS011;40070;47.322;18.784;2024-02-23T02:27:28;2.82;;;1.19;;
48809;SDS011;40070;47.322;18.784;2024-02-23T02:29:29;2.82;;;1.19;;
48809;SDS011;40070;47.322;18.784;2024-02-23T02:31:30;4.06;;;1.29;;
48809;SDS011;40070;47.322;18.784;2024-02-23T02:33:31;3.27;;;1.48;;
48809;SDS011;40070;47.322;18.784;2024-02-23T02:35:32;3.47;;;1.38;;
48809;SDS011;40070;47.322;18.784;2024-02-23T02:37:33;3.27;;;1.38;;
48809;SDS011;40070;47.322;18.784;2024-02-23T02:39:34;4.21;;;1.58;;
48809;SDS011;40070;47.322;18.784;2024-02-23T02:41:35;2.87;;;1.18;;
48809;SDS011;40070;47.322;18.784;2024-02-23T02:43:36;3.53;;;1.48;;
48809;SDS011;40070;47.322;18.784;2024-02-23T02:45:37;2.97;;;1.38;;
48809;SDS011;40070;47.322;18.784;2024-02-23T02:47:38;3.43;;;1.38;;
48809;SDS011;40070;47.322;18.784;2024-02-23T02:49:39;3.13;;;1.18;;
48809;SDS011;40070;47.322;18.784;2024-02-23T02:51:41;3.41;;;1.28;;
48809;SDS011;40070;47.322;18.784;2024-02-23T02:53:42;4.21;;;1.67;;
48809;SDS011;40070;47.322;18.784;2024-02-23T02:55:43;3.20;;;1.57;;
48809;SDS011;40070;47.322;18.784;2024-02-23T02:57:45;3.03;;;1.37;;
48809;SDS011;40070;47.322;18.784;2024-02-23T02:59:46;4.39;;;1.47;;
48809;SDS011;40070;47.322;18.784;2024-02-23T03:01:47;3.75;;;1.47;;
48809;SDS011;40070;47.322;18.784;2024-02-23T03:03:48;3.65;;;1.47;;
48809;SDS011;40070;47.322;18.784;2024-02-23T03:05:49;2.91;;;1.27;;
48809;SDS011;40070;47.322;18.784;2024-02-23T03:07:50;4.00;;;1.37;;
48809;SDS011;40070;47.322;18.784;2024-02-23T03:09:51;3.72;;;1.47;;
48809;SDS011;40070;47.322;18.784;2024-02-23T03:11:52;3.36;;;1.57;;
48809;SDS011;40070;47.322;18.784;2024-02-23T03:13:53;2.37;;;0.98;;
48809;SDS011;40070;47.322;18.784;2024-02-23T03:15:54;5.00;;;1.47;;
48809;SDS011;40070;47.322;18.784;2024-02-23T03:17:55;3.74;;;1.76;;
48809;SDS011;40070;47.322;18.784;2024-02-23T03:19:56;3.10;;;1.37;;
48809;SDS011;40070;47.322;18.784;2024-02-23T03:21:57;3.55;;;1.27;;
48809;SDS011;40070;47.322;18.784;2024-02-23T03:23:58;4.93;;;1.76;;
48809;SDS011;40070;47.322;18.784;2024-02-23T03:25:59;2.90;;;1.37;;
48809;SDS011;40070;47.322;18.784;2024-02-23T03:28:00;3.45;;;1.37;;
48809;SDS011;40070;47.322;18.784;2024-02-23T03:30:01;3.81;;;1.56;;
48809;SDS011;40070;47.322;18.784;2024-02-23T03:32:02;3.61;;;1.76;;
48809;SDS011;40070;47.322;18.784;2024-02-23T03:34:03;2.82;;;1.27;;
48809;SDS011;40070;47.322;18.784;2024-02-23T03:36:04;3.64;;;1.57;;
48809;SDS011;40070;47.322;18.784;2024-02-23T03:38:04;2.91;;;1.47;;
48809;SDS011;40070;47.322;18.784;2024-02-23T03:40:06;4.28;;;1.86;;
48809;SDS011;40070;47.322;18.784;2024-02-23T03:42:06;4.00;;;1.86;;
48809;SDS011;40070;47.322;18.784;2024-02-23T03:44:07;4.02;;;1.57;;
48809;SDS011;40070;47.322;18.784;2024-02-23T03:46:08;3.64;;;1.37;;
48809;SDS011;40070;47.322;18.784;2024-02-23T03:48:09;3.03;;;1.37;;
48809;SDS011;40070;47.322;18.784;2024-02-23T03:50:11;4.87;;;1.67;;
48809;SDS011;40070;47.322;18.784;2024-02-23T03:52:11;3.49;;;1.28;;
48809;SDS011;40070;47.322;18.784;2024-02-23T03:54:12;3.50;;;1.28;;
48809;SDS011;40070;47.322;18.784;2024-02-23T03:56:13;2.86;;;1.18;;
48809;SDS011;40070;47.322;18.784;2024-02-23T03:58:14;4.33;;;1.57;;
48809;SDS011;40070;47.322;18.784;2024-02-23T04:00:25;4.88;;;1.97;;
48809;SDS011;40070;47.322;18.784;2024-02-23T04:02:26;5.06;;;1.87;;
48809;SDS011;40070;47.322;18.784;2024-02-23T04:04:27;3.32;;;1.47;;
48809;SDS011;40070;47.322;18.784;2024-02-23T04:06:28;3.13;;;1.38;;
48809;SDS011;40070;47.322;18.784;2024-02-23T04:08:29;4.62;;;1.67;;
48809;SDS011;40070;47.322;18.784;2024-02-23T04:10:30;4.06;;;1.67;;
48809;SDS011;40070;47.322;18.784;2024-02-23T04:12:31;4.34;;;1.57;;
48809;SDS011;40070;47.322;18.784;2024-02-23T04:14:32;3.78;;;1.47;;
48809;SDS011;40070;47.322;18.784;2024-02-23T04:16:33;3.95;;;1.57;;
48809;SDS011;40070;47.322;18.784;2024-02-23T04:18:34;3.22;;;1.28;;
48809;SDS011;40070;47.322;18.784;2024-02-23T04:20:38;3.67;;;1.47;;
48809;SDS011;40070;47.322;18.784;2024-02-23T04:22:40;3.95;;;1.57;;
48809;SDS011;40070;47.322;18.784;2024-02-23T04:24:41;4.03;;;1.28;;
48809;SDS011;40070;47.322;18.784;2024-02-23T04:26:42;2.94;;;1.37;;
48809;SDS011;40070;47.322;18.784;2024-02-23T04:28:43;4.52;;;1.57;;
48809;SDS011;40070;47.322;18.784;2024-02-23T04:30:44;4.33;;;1.38;;
48809;SDS011;40070;47.322;18.784;2024-02-23T04:32:45;2.59;;;1.18;;
48809;SDS011;40070;47.322;18.784;2024-02-23T04:34:46;2.96;;;1.28;;
48809;SDS011;40070;47.322;18.784;2024-02-23T04:36:50;2.77;;;1.38;;
48809;SDS011;40070;47.322;18.784;2024-02-23T04:38:51;2.87;;;1.28;;
48809;SDS011;40070;47.322;18.784;2024-02-23T04:40:52;2.78;;;1.28;;
48809;SDS011;40070;47.322;18.784;2024-02-23T04:42:53;3.25;;;1.38;;
48809;SDS011;40070;47.322;18.784;2024-02-23T04:44:54;2.60;;;1.08;;
48809;SDS011;40070;47.322;18.784;2024-02-23T04:46:55;3.26;;;1.18;;
48809;SDS011;40070;47.322;18.784;2024-02-23T04:48:56;2.60;;;1.18;;
48809;SDS011;40070;47.322;18.784;2024-02-23T04:50:57;2.50;;;1.18;;
48809;SDS011;40070;47.322;18.784;2024-02-23T04:52:58;2.31;;;1.08;;
48809;SDS011;40070;47.322;18.784;2024-02-23T04:54:59;2.32;;;0.89;;
48809;SDS011;40070;47.322;18.784;2024-02-23T04:57:00;2.69;;;1.08;;
48809;SDS011;40070;47.322;18.784;2024-02-23T04:59:00;2.51;;;1.08;;
48809;SDS011;40070;47.322;18.784;2024-02-23T05:01:01;2.34;;;1.18;;
48809;SDS011;40070;47.322;18.784;2024-02-23T05:03:03;1.97;;;0.89;;
48809;SDS011;40070;47.322;18.784;2024-02-23T05:05:04;2.07;;;0.89;;
48809;SDS011;40070;47.322;18.784;2024-02-23T05:07:04;1.60;;;0.69;;
48809;SDS011;40070;47.322;18.784;2024-02-23T05:09:05;2.35;;;0.89;;
48809;SDS011;40070;47.322;18.784;2024-02-23T05:11:06;1.50;;;0.49;;
48809;SDS011;40070;47.322;18.784;2024-02-23T05:13:07;1.13;;;0.49;;
48809;SDS011;40070;47.322;18.784;2024-02-23T05:15:08;1.79;;;0.69;;
48809;SDS011;40070;47.322;18.784;2024-02-23T05:17:09;0.94;;;0.49;;
48809;SDS011;40070;47.322;18.784;2024-02-23T05:19:10;1.88;;;0.69;;
48809;SDS011;40070;47.322;18.784;2024-02-23T05:21:11;2.07;;;0.59;;
48809;SDS011;40070;47.322;18.784;2024-02-23T05:23:12;1.70;;;0.69;;
48809;SDS011;40070;47.322;18.784;2024-02-23T05:25:13;1.70;;;0.69;;
48809;SDS011;40070;47.322;18.784;2024-02-23T05:27:14;2.08;;;0.79;;
48809;SDS011;40070;47.322;18.784;2024-02-23T05:29:15;1.42;;;0.59;;
48809;SDS011;40070;47.322;18.784;2024-02-23T05:31:16;1.61;;;0.79;;
48809;SDS011;40070;47.322;18.784;2024-02-23T05:33:18;1.33;;;0.79;;
48809;SDS011;40070;47.322;18.784;2024-02-23T05:35:19;1.33;;;0.69;;
48809;SDS011;40070;47.322;18.784;2024-02-23T05:37:21;2.36;;;0.79;;
48809;SDS011;40070;47.322;18.784;2024-02-23T05:39:22;1.04;;;0.59;;
48809;SDS011;40070;47.322;18.784;2024-02-23T05:41:23;1.32;;;0.49;;
48809;SDS011;40070;47.322;18.784;2024-02-23T05:43:24;1.98;;;0.69;;
48809;SDS011;40070;47.322;18.784;2024-02-23T05:45:25;1.32;;;0.59;;
48809;SDS011;40070;47.322;18.784;2024-02-23T05:47:26;2.62;;;0.69;;
48809;SDS011;40070;47.322;18.784;2024-02-23T05:49:28;1.40;;;0.59;;
48809;SDS011;40070;47.322;18.784;2024-02-23T05:51:29;1.21;;;0.59;;
48809;SDS011;40070;47.322;18.784;2024-02-23T05:53:30;1.67;;;0.79;;
48809;SDS011;40070;47.322;18.784;2024-02-23T05:55:31;2.30;;;0.88;;
48809;SDS011;40070;47.322;18.784;2024-02-23T05:57:32;3.21;;;0.98;;
48809;SDS011;40070;47.322;18.784;2024-02-23T05:59:33;1.83;;;0.69;;
48809;SDS011;40070;47.322;18.784;2024-02-23T06:01:34;2.19;;;0.88;;
48809;SDS011;40070;47.322;18.784;2024-02-23T06:03:35;2.28;;;0.98;;
48809;SDS011;40070;47.322;18.784;2024-02-23T06:05:36;2.37;;;0.98;;
48809;SDS011;40070;47.322;18.784;2024-02-23T06:07:37;2.54;;;1.17;;
48809;SDS011;40070;47.322;18.784;2024-02-23T06:09:38;2.44;;;1.17;;
48809;SDS011;40070;47.322;18.784;2024-02-23T06:11:40;3.43;;;1.66;;
48809;SDS011;40070;47.322;18.784;2024-02-23T06:13:41;3.07;;;1.27;;
48809;SDS011;40070;47.322;18.784;2024-02-23T06:15:43;3.15;;;1.36;;
48809;SDS011;40070;47.322;18.784;2024-02-23T06:17:44;3.16;;;1.27;;
48809;SDS011;40070;47.322;18.784;2024-02-23T06:19:44;3.15;;;1.46;;
48809;SDS011;40070;47.322;18.784;2024-02-23T06:21:49;3.33;;;1.07;;
48809;SDS011;40070;47.322;18.784;2024-02-23T06:23:48;4.06;;;1.37;;
48809;SDS011;40070;47.322;18.784;2024-02-23T06:25:49;2.89;;;1.27;;
48809;SDS011;40070;47.322;18.784;2024-02-23T06:27:49;3.70;;;1.66;;
48809;SDS011;40070;47.322;18.784;2024-02-23T06:29:51;5.73;;;3.50;;
48809;SDS011;40070;47.322;18.784;2024-02-23T06:31:52;4.83;;;2.82;;
48809;SDS011;40070;47.322;18.784;2024-02-23T06:33:53;3.31;;;1.75;;
48809;SDS011;40070;47.322;18.784;2024-02-23T06:35:53;3.14;;;1.75;;
48809;SDS011;40070;47.322;18.784;2024-02-23T06:37:54;4.30;;;1.65;;
48809;SDS011;40070;47.322;18.784;2024-02-23T06:39:55;4.29;;;1.65;;
48809;SDS011;40070;47.322;18.784;2024-02-23T06:41:56;3.29;;;1.46;;
48809;SDS011;40070;47.322;18.784;2024-02-23T06:43:57;2.76;;;1.26;;
48809;SDS011;40070;47.322;18.784;2024-02-23T06:45:58;3.10;;;1.36;;
48809;SDS011;40070;47.322;18.784;2024-02-23T06:47:59;2.92;;;1.36;;
48809;SDS011;40070;47.322;18.784;2024-02-23T06:50:00;2.29;;;1.16;;
48809;SDS011;40070;47.322;18.784;2024-02-23T06:52:04;2.38;;;1.16;;
48809;SDS011;40070;47.322;18.784;2024-02-23T06:54:05;2.45;;;1.35;;
48809;SDS011;40070;47.322;18.784;2024-02-23T06:56:06;3.06;;;1.25;;
48809;SDS011;40070;47.322;18.784;2024-02-23T06:58:07;3.05;;;1.25;;
48809;SDS011;40070;47.322;18.784;2024-02-23T07:00:08;3.57;;;1.44;;
48809;SDS011;40070;47.322;18.784;2024-02-23T07:02:18;3.32;;;1.45;;
48809;SDS011;40070;47.322;18.784;2024-02-23T07:04:19;4.46;;;1.54;;
48809;SDS011;40070;47.322;18.784;2024-02-23T07:06:20;2.61;;;1.44;;
48809;SDS011;40070;47.322;18.784;2024-02-23T07:08:24;2.59;;;1.25;;
48809;SDS011;40070;47.322;18.784;2024-02-23T07:10:22;3.64;;;1.44;;
48809;SDS011;40070;47.322;18.784;2024-02-23T07:12:23;3.21;;;1.54;;
48809;SDS011;40070;47.322;18.784;2024-02-23T07:14:24;3.13;;;1.54;;
48809;SDS011;40070;47.322;18.784;2024-02-23T07:16:25;3.13;;;1.54;;
48809;SDS011;40070;47.322;18.784;2024-02-23T07:18:26;5.07;;;1.54;;
48809;SDS011;40070;47.322;18.784;2024-02-23T07:20:27;3.06;;;1.54;;
48809;SDS011;40070;47.322;18.784;2024-02-23T07:22:28;5.50;;;1.83;;
48809;SDS011;40070;47.322;18.784;2024-02-23T07:24:29;2.62;;;1.44;;
48809;SDS011;40070;47.322;18.784;2024-02-23T07:26:30;3.32;;;1.54;;
48809;SDS011;40070;47.322;18.784;2024-02-23T07:28:31;6.05;;;1.83;;
48809;SDS011;40070;47.322;18.784;2024-02-23T07:30:32;4.53;;;2.31;;
48809;SDS011;40070;47.322;18.784;2024-02-23T07:32:33;4.19;;;1.54;;
48809;SDS011;40070;47.322;18.784;2024-02-23T07:34:34;2.61;;;1.25;;
48809;SDS011;40070;47.322;18.784;2024-02-23T07:36:35;4.17;;;1.73;;
48809;SDS011;40070;47.322;18.784;2024-02-23T07:38:36;2.51;;;1.25;;
48809;SDS011;40070;47.322;18.784;2024-02-23T07:40:38;3.30;;;1.25;;
48809;SDS011;40070;47.322;18.784;2024-02-23T07:42:39;3.38;;;1.44;;
48809;SDS011;40070;47.322;18.784;2024-02-23T07:44:40;3.73;;;1.34;;
48809;SDS011;40070;47.322;18.784;2024-02-23T07:46:41;5.45;;;3.36;;
48809;SDS011;40070;47.322;18.784;2024-02-23T07:48:42;4.60;;;2.21;;
48809;SDS011;40070;47.322;18.784;2024-02-23T07:50:43;3.39;;;1.54;;
48809;SDS011;40070;47.322;18.784;2024-02-23T07:52:44;2.44;;;1.35;;
48809;SDS011;40070;47.322;18.784;2024-02-23T07:54:45;2.45;;;1.06;;
48809;SDS011;40070;47.322;18.784;2024-02-23T07:56:46;4.22;;;1.54;;
48809;SDS011;40070;47.322;18.784;2024-02-23T07:58:47;3.26;;;1.35;;
48809;SDS011;40070;47.322;18.784;2024-02-23T08:00:48;2.81;;;1.35;;
48809;SDS011;40070;47.322;18.784;2024-02-23T08:02:49;3.41;;;1.45;;
48809;SDS011;40070;47.322;18.784;2024-02-23T08:04:50;2.46;;;1.26;;
48809;SDS011;40070;47.322;18.784;2024-02-23T08:06:51;3.34;;;1.45;;
48809;SDS011;40070;47.322;18.784;2024-02-23T08:08:52;3.19;;;1.07;;
48809;SDS011;40070;47.322;18.784;2024-02-23T08:10:53;3.27;;;1.45;;
48809;SDS011;40070;47.322;18.784;2024-02-23T08:12:54;2.93;;;1.16;;
48809;SDS011;40070;47.322;18.784;2024-02-23T08:14:55;3.09;;;1.36;;
48809;SDS011;40070;47.322;18.784;2024-02-23T08:16:56;2.74;;;1.26;;
48809;SDS011;40070;47.322;18.784;2024-02-23T08:18:57;3.10;;;1.36;;
48809;SDS011;40070;47.322;18.784;2024-02-23T08:20:58;3.97;;;1.16;;
48809;SDS011;40070;47.322;18.784;2024-02-23T08:22:59;2.74;;;1.26;;
48809;SDS011;40070;47.322;18.784;2024-02-23T08:25:00;2.58;;;1.16;;
48809;SDS011;40070;47.322;18.784;2024-02-23T08:27:00;2.75;;;1.26;;
48809;SDS011;40070;47.322;18.784;2024-02-23T08:29:01;2.48;;;1.07;;
48809;SDS011;40070;47.322;18.784;2024-02-23T08:31:03;2.93;;;1.16;;
48809;SDS011;40070;47.322;18.784;2024-02-23T08:33:04;3.46;;;1.65;;
48809;SDS011;40070;47.322;18.784;2024-02-23T08:35:05;3.04;;;1.26;;
48809;SDS011;40070;47.322;18.784;2024-02-23T08:37:05;3.12;;;1.26;;
48809;SDS011;40070;47.322;18.784;2024-02-23T08:39:06;3.51;;;1.56;;
48809;SDS011;40070;47.322;18.784;2024-02-23T08:41:07;3.06;;;1.27;;
48809;SDS011;40070;47.322;18.784;2024-02-23T08:43:09;3.78;;;1.37;;
48809;SDS011;40070;47.322;18.784;2024-02-23T08:45:10;4.52;;;1.66;;
48809;SDS011;40070;47.322;18.784;2024-02-23T08:47:10;2.71;;;1.17;;
48809;SDS011;40070;47.322;18.784;2024-02-23T08:49:12;2.79;;;1.27;;
48809;SDS011;40070;47.322;18.784;2024-02-23T08:51:12;2.78;;;1.27;;
48809;SDS011;40070;47.322;18.784;2024-02-23T08:53:13;3.22;;;1.36;;
48809;SDS011;40070;47.322;18.784;2024-02-23T08:55:14;4.13;;;1.36;;
48809;SDS011;40070;47.322;18.784;2024-02-23T08:57:15;4.04;;;1.17;;
48809;SDS011;40070;47.322;18.784;2024-02-23T08:59:16;2.61;;;1.07;;
48809;SDS011;40070;47.322;18.784;2024-02-23T09:01:17;2.61;;;1.07;;
48809;SDS011;40070;47.322;18.784;2024-02-23T09:03:18;2.59;;;1.17;;
48809;SDS011;40070;47.322;18.784;2024-02-23T09:05:19;4.32;;;1.56;;
48809;SDS011;40070;47.322;18.784;2024-02-23T09:07:20;5.22;;;1.36;;
48809;SDS011;40070;47.322;18.784;2024-02-23T09:09:21;3.90;;;1.86;;
48809;SDS011;40070;47.322;18.784;2024-02-23T09:11:22;3.27;;;1.17;;
48809;SDS011;40070;47.322;18.784;2024-02-23T09:13:23;3.61;;;1.46;;
48809;SDS011;40070;47.322;18.784;2024-02-23T09:15:24;2.17;;;0.98;;
48809;SDS011;40070;47.322;18.784;2024-02-23T09:17:25;3.35;;;1.17;;
48809;SDS011;40070;47.322;18.784;2024-02-23T09:19:26;3.17;;;1.37;;
48809;SDS011;40070;47.322;18.784;2024-02-23T09:21:27;2.38;;;1.08;;
48809;SDS011;40070;47.322;18.784;2024-02-23T09:23:28;3.29;;;1.08;;
48809;SDS011;40070;47.322;18.784;2024-02-23T09:25:29;5.40;;;2.35;;
48809;SDS011;40070;47.322;18.784;2024-02-23T09:27:30;4.66;;;1.96;;
48809;SDS011;40070;47.322;18.784;2024-02-23T09:29:31;3.11;;;1.27;;
48809;SDS011;40070;47.322;18.784;2024-02-23T09:31:32;3.58;;;1.67;;
48809;SDS011;40070;47.322;18.784;2024-02-23T09:33:33;2.92;;;1.47;;
48809;SDS011;40070;47.322;18.784;2024-02-23T09:35:34;2.85;;;1.08;;
48809;SDS011;40070;47.322;18.784;2024-02-23T09:37:35;2.76;;;1.18;;
48809;SDS011;40070;47.322;18.784;2024-02-23T09:39:36;4.07;;;1.38;;
48809;SDS011;40070;47.322;18.784;2024-02-23T09:41:42;3.05;;;1.18;;
48809;SDS011;40070;47.322;18.784;2024-02-23T09:43:43;3.33;;;1.18;;
48809;SDS011;40070;47.322;18.784;2024-02-23T09:45:50;2.22;;;0.89;;
48809;SDS011;40070;47.322;18.784;2024-02-23T09:47:46;2.78;;;1.28;;
48809;SDS011;40070;47.322;18.784;2024-02-23T09:49:47;3.34;;;1.38;;
48809;SDS011;40070;47.322;18.784;2024-02-23T09:51:48;9.03;;;3.34;;
48809;SDS011;40070;47.322;18.784;2024-02-23T09:53:50;4.05;;;1.97;;
48809;SDS011;40070;47.322;18.784;2024-02-23T09:55:52;3.42;;;1.38;;
48809;SDS011;40070;47.322;18.784;2024-02-23T09:57:55;2.86;;;1.38;;
48809;SDS011;40070;47.322;18.784;2024-02-23T09:59:55;2.96;;;1.28;;
48809;SDS011;40070;47.322;18.784;2024-02-23T10:01:59;3.25;;;1.38;;
48809;SDS011;40070;47.322;18.784;2024-02-23T10:04:01;2.31;;;1.08;;
48809;SDS011;40070;47.322;18.784;2024-02-23T10:06:02;2.49;;;1.08;;
48809;SDS011;40070;47.322;18.784;2024-02-23T10:08:03;2.22;;;1.18;;
48809;SDS011;40070;47.322;18.784;2024-02-23T10:10:06;2.95;;;1.08;;
48809;SDS011;40070;47.322;18.784;2024-02-23T10:12:05;2.87;;;1.08;;
48809;SDS011;40070;47.322;18.784;2024-02-23T10:14:06;2.96;;;1.08;;
48809;SDS011;40070;47.322;18.784;2024-02-23T10:16:07;2.68;;;1.18;;
48809;SDS011;40070;47.322;18.784;2024-02-23T10:18:08;2.41;;;1.18;;
48809;SDS011;40070;47.322;18.784;2024-02-23T10:20:09;3.25;;;1.38;;
48809;SDS011;40070;47.322;18.784;2024-02-23T10:22:10;3.99;;;1.48;;
48809;SDS011;40070;47.322;18.784;2024-02-23T10:24:11;3.62;;;1.38;;
48809;SDS011;40070;47.322;18.784;2024-02-23T10:26:15;3.82;;;1.18;;
48809;SDS011;40070;47.322;18.784;2024-02-23T10:28:13;3.73;;;1.68;;
48809;SDS011;40070;47.322;18.784;2024-02-23T10:30:14;3.26;;;1.68;;
48809;SDS011;40070;47.322;18.784;2024-02-23T10:32:18;3.74;;;1.58;;
48809;SDS011;40070;47.322;18.784;2024-02-23T10:34:19;4.09;;;1.68;;
48809;SDS011;40070;47.322;18.784;2024-02-23T10:36:21;4.46;;;1.87;;
48809;SDS011;40070;47.322;18.784;2024-02-23T10:38:23;5.41;;;2.47;;
48809;SDS011;40070;47.322;18.784;2024-02-23T10:40:28;3.63;;;1.77;;
48809;SDS011;40070;47.322;18.784;2024-02-23T10:42:33;3.47;;;1.09;;
48809;SDS011;40070;47.322;18.784;2024-02-23T10:44:32;3.65;;;1.28;;
48809;SDS011;40070;47.322;18.784;2024-02-23T10:46:33;4.12;;;1.48;;
48809;SDS011;40070;47.322;18.784;2024-02-23T10:48:35;2.90;;;1.18;;
48809;SDS011;40070;47.322;18.784;2024-02-23T10:50:37;1.97;;;0.89;;
48809;SDS011;40070;47.322;18.784;2024-02-23T10:52:40;2.62;;;1.38;;
48809;SDS011;40070;47.322;18.784;2024-02-23T10:54:42;2.92;;;1.19;;
48809;SDS011;40070;47.322;18.784;2024-02-23T10:56:43;2.63;;;1.09;;
48809;SDS011;40070;47.322;18.784;2024-02-23T10:58:44;2.81;;;1.09;;
48809;SDS011;40070;47.322;18.784;2024-02-23T11:00:45;6.93;;;2.77;;
48809;SDS011;40070;47.322;18.784;2024-02-23T11:02:50;7.92;;;3.17;;
48809;SDS011;40070;47.322;18.784;2024-02-23T11:04:53;5.06;;;1.78;;
48809;SDS011;40070;47.322;18.784;2024-02-23T11:06:58;15.79;;;4.45;;
48809;SDS011;40070;47.322;18.784;2024-02-23T11:09:11;6.20;;;2.67;;
48809;SDS011;40070;47.322;18.784;2024-02-23T11:11:10;5.53;;;2.27;;
48809;SDS011;40070;47.322;18.784;2024-02-23T11:13:07;3.47;;;1.58;;
48809;SDS011;40070;47.322;18.784;2024-02-23T11:15:04;5.07;;;2.17;;
48809;SDS011;40070;47.322;18.784;2024-02-23T11:17:04;3.29;;;1.48;;
48809;SDS011;40070;47.322;18.784;2024-02-23T11:19:06;3.66;;;1.28;;
48809;SDS011;40070;47.322;18.784;2024-02-23T11:21:09;5.06;;;1.58;;
48809;SDS011;40070;47.322;18.784;2024-02-23T11:23:15;3.09;;;1.38;;
48809;SDS011;40070;47.322;18.784;2024-02-23T11:25:13;3.55;;;1.48;;
48809;SDS011;40070;47.322;18.784;2024-02-23T11:27:14;3.38;;;1.48;;
48809;SDS011;40070;47.322;18.784;2024-02-23T11:29:28;4.15;;;1.78;;
48809;SDS011;40070;47.322;18.784;2024-02-23T11:31:29;3.59;;;1.58;;
48809;SDS011;40070;47.322;18.784;2024-02-23T11:33:30;4.25;;;1.68;;
48809;SDS011;40070;47.322;18.784;2024-02-23T11:35:32;4.72;;;1.98;;
48809;SDS011;40070;47.322;18.784;2024-02-23T11:37:48;3.77;;;1.68;;
48809;SDS011;40070;47.322;18.784;2024-02-23T11:39:41;3.59;;;1.68;;
48809;SDS011;40070;47.322;18.784;2024-02-23T11:41:42;6.42;;;2.28;;
48809;SDS011;40070;47.322;18.784;2024-02-23T11:43:44;5.39;;;1.78;;
48809;SDS011;40070;47.322;18.784;2024-02-23T11:45:46;6.81;;;2.08;;
48809;SDS011;40070;47.322;18.784;2024-02-23T11:47:46;3.79;;;1.78;;
48809;SDS011;40070;47.322;18.784;2024-02-23T11:49:47;5.10;;;1.68;;
48809;SDS011;40070;47.322;18.784;2024-02-23T11:51:48;6.15;;;2.77;;
48809;SDS011;40070;47.322;18.784;2024-02-23T11:53:49;5.31;;;2.78;;
48809;SDS011;40070;47.322;18.784;2024-02-23T11:55:51;4.26;;;2.08;;
48809;SDS011;40070;47.322;18.784;2024-02-23T11:57:52;5.86;;;2.28;;